Time;durP1;ratioP1;P1;durP2;ratioP2;P2;SDS_P1;SDS_P2;PMS_P1;PMS_P2;Temp;Humidity;BMP_temperature;BMP_pressure;BME280_temperature;BME280_humidity;BME280_pressure;Samples;Min_cycle;Max_cycle;Signal;HPM_P1;HPM_P2
2022/05/12 00:00:44;;;;;;;;;18.75;17.50;;;;;21.37;36.84;99669.91;5066760;28;8860;-76
2022/05/12 00:03:13;;;;;;;;;19.25;18.50;;;;;21.36;37.00;99669.97;5049441;28;8862;-76
2022/05/12 00:05:42;;;;;;;;;18.50;17.00;;;;;21.24;37.17;99668.69;5029328;28;8857;-76
2022/05/12 00:08:12;;;;;;;;;17.00;16.25;;;;;21.21;37.10;99669.69;5063149;28;8847;-76
2022/05/12 00:10:42;;;;;;;;;16.50;15.75;;;;;21.16;37.19;99671.69;5048183;28;8865;-74
2022/05/12 00:13:12;;;;;;;;;18.75;17.50;;;;;21.14;37.29;99668.22;5048791;28;8866;-75
2022/05/12 00:15:40;;;;;;;;;13.50;13.50;;;;;21.18;37.16;99666.31;5000448;28;8835;-73
2022/05/12 00:18:09;;;;;;;;;16.00;15.75;;;;;21.25;37.47;99664.25;5042619;28;8906;-75
2022/05/12 00:20:41;;;;;;;;;21.00;19.50;;;;;21.28;37.60;99658.81;5068191;28;8820;-76
2022/05/12 00:23:14;;;;;;;;;14.25;13.50;;;;;21.29;37.75;99660.56;5068247;28;8855;-76
2022/05/12 00:25:45;;;;;;;;;22.25;20.50;;;;;21.35;37.88;99661.16;5066439;28;8880;-76
2022/05/12 00:28:14;;;;;;;;;17.00;16.50;;;;;21.30;38.09;99655.16;5066400;28;8883;-76
2022/05/12 00:30:44;;;;;;;;;15.50;14.75;;;;;21.36;38.03;99652.28;5054413;28;8986;-75
2022/05/12 00:33:14;;;;;;;;;17.25;16.75;;;;;21.36;37.74;99654.94;5062888;28;8980;-74
2022/05/12 00:35:45;;;;;;;;;19.75;17.75;;;;;21.38;37.52;99658.38;5066499;28;8829;-76
2022/05/12 00:38:16;;;;;;;;;16.75;16.75;;;;;21.40;37.67;99653.84;5048716;28;8983;-76
2022/05/12 00:40:46;;;;;;;;;18.75;17.75;;;;;21.36;37.71;99654.94;5067897;28;8848;-74
2022/05/12 00:43:38;;;;;;;;;17.50;17.00;;;;;21.32;37.77;99652.44;5067656;28;8852;-75
2022/05/12 00:46:10;;;;;;;;;19.25;18.25;;;;;21.33;38.08;99652.41;5066505;28;8863;-74
2022/05/12 00:48:39;;;;;;;;;21.00;19.00;;;;;21.27;38.00;99646.50;5067588;28;8890;-75
2022/05/12 00:51:10;;;;;;;;;17.50;16.75;;;;;21.27;38.27;99649.16;5035096;28;8953;-76
2022/05/12 00:53:41;;;;;;;;;18.75;16.75;;;;;21.23;38.50;99653.72;5034660;28;8899;-74
2022/05/12 00:56:16;;;;;;;;;18.25;15.50;;;;;21.25;38.61;99651.00;5070133;28;8843;-75
2022/05/12 00:58:46;;;;;;;;;19.00;17.25;;;;;21.26;38.77;99648.28;5071100;28;8856;-76
2022/05/12 01:01:15;;;;;;;;;20.25;20.25;;;;;21.30;38.91;99646.34;5061869;28;8842;-76
2022/05/12 01:03:45;;;;;;;;;18.00;17.75;;;;;21.18;39.34;99647.75;5066755;28;9662;-75
2022/05/12 01:06:15;;;;;;;;;19.75;18.75;;;;;21.22;39.34;99644.03;5049957;28;8874;-75
2022/05/12 01:08:46;;;;;;;;;13.75;13.75;;;;;21.19;39.60;99646.81;5058522;28;8862;-76
2022/05/12 01:11:17;;;;;;;;;18.75;17.75;;;;;21.16;39.74;99641.66;5008759;28;8870;-76
2022/05/12 01:13:51;;;;;;;;;18.75;18.00;;;;;21.21;39.67;99640.53;5008867;28;8894;-75
2022/05/12 01:16:35;;;;;;;;;19.25;19.25;;;;;21.11;39.93;99636.53;5009217;28;8851;-77
2022/05/12 01:19:04;;;;;;;;;16.00;16.00;;;;;21.06;40.05;99643.84;5009009;28;8844;-77
2022/05/12 01:21:34;;;;;;;;;16.00;16.00;;;;;21.00;40.23;99639.66;5008819;28;8965;-79
2022/05/12 01:24:04;;;;;;;;;19.00;18.50;;;;;20.96;40.36;99640.72;5008794;28;8831;-76
2022/05/12 01:26:34;;;;;;;;;19.25;19.25;;;;;20.85;40.87;99635.00;5020165;28;8853;-75
2022/05/12 01:29:03;;;;;;;;;18.75;17.00;;;;;20.71;41.18;99640.84;5011432;28;8885;-77
2022/05/12 01:31:32;;;;;;;;;16.25;16.00;;;;;20.67;41.38;99646.34;5028236;28;8834;-75
2022/05/12 01:34:03;;;;;;;;;16.50;16.25;;;;;20.63;41.53;99638.50;5028430;28;8888;-75
2022/05/12 01:36:32;;;;;;;;;19.50;19.50;;;;;20.69;41.56;99639.19;4988460;28;8842;-76
2022/05/12 01:39:02;;;;;;;;;16.50;16.50;;;;;20.71;41.57;99635.53;4988808;28;8878;-75
2022/05/12 01:41:32;;;;;;;;;15.75;14.50;;;;;20.64;41.66;99648.19;4977556;28;8834;-75
2022/05/12 01:44:02;;;;;;;;;21.00;20.50;;;;;20.64;41.59;99642.91;5031862;28;8940;-76
2022/05/12 01:46:31;;;;;;;;;21.75;20.75;;;;;20.59;41.95;99641.31;5027789;28;8870;-75
2022/05/12 01:48:59;;;;;;;;;18.00;17.50;;;;;20.61;41.86;99642.16;4979263;28;8869;-75
2022/05/12 01:51:28;;;;;;;;;17.75;16.00;;;;;20.52;42.10;99638.03;5027608;28;8845;-74
2022/05/12 01:53:57;;;;;;;;;18.50;17.50;;;;;20.54;42.06;99637.97;5011155;28;8862;-76
2022/05/12 01:56:26;;;;;;;;;19.75;18.50;;;;;20.51;42.04;99641.63;5028005;28;8846;-80
2022/05/12 01:58:56;;;;;;;;;19.00;19.00;;;;;20.49;41.94;99634.66;5027474;28;8834;-75
2022/05/12 02:01:24;;;;;;;;;15.75;15.75;;;;;20.54;41.96;99641.50;5034798;28;8828;-76
2022/05/12 02:03:53;;;;;;;;;16.25;16.25;;;;;20.55;41.96;99634.44;5047237;28;9025;-74
2022/05/12 02:06:21;;;;;;;;;17.33;16.33;;;;;20.59;41.94;99631.56;5047476;28;9071;-76
2022/05/12 02:08:50;;;;;;;;;16.25;16.25;;;;;20.62;41.84;99635.91;5047393;28;8860;-76
2022/05/12 02:11:19;;;;;;;;;16.75;15.50;;;;;20.62;41.76;99634.16;5034823;28;8834;-76
2022/05/12 02:13:47;;;;;;;;;17.75;17.75;;;;;20.60;42.00;99641.31;5034570;28;8842;-76
2022/05/12 02:16:18;;;;;;;;;18.25;18.25;;;;;20.60;41.62;99632.47;5048644;28;8908;-77
2022/05/12 02:18:46;;;;;;;;;18.50;17.50;;;;;20.67;41.64;99635.75;5066533;28;8856;-77
2022/05/12 02:21:15;;;;;;;;;18.25;17.25;;;;;20.69;41.49;99626.78;5069947;28;9011;-77
2022/05/12 02:23:44;;;;;;;;;19.50;18.75;;;;;20.60;41.74;99632.47;5064239;28;8857;-78
2022/05/12 02:26:13;;;;;;;;;18.00;18.00;;;;;20.58;41.57;99629.84;5048508;28;8854;-75
2022/05/12 02:28:42;;;;;;;;;17.00;15.00;;;;;20.58;41.61;99631.63;5049629;28;8898;-77
2022/05/12 02:31:10;;;;;;;;;18.50;18.00;;;;;20.57;41.80;99636.06;5048154;28;8859;-75
2022/05/12 02:33:40;;;;;;;;;19.75;19.75;;;;;20.55;41.90;99635.28;5049046;28;8850;-74
2022/05/12 02:36:09;;;;;;;;;16.75;16.75;;;;;20.47;41.79;99625.91;5049380;28;8892;-74
2022/05/12 02:38:39;;;;;;;;;16.00;15.25;;;;;20.50;41.88;99629.28;5049289;28;8863;-75
2022/05/12 02:41:08;;;;;;;;;18.00;16.25;;;;;20.61;41.43;99629.75;5048053;28;8880;-75
2022/05/12 02:43:37;;;;;;;;;19.25;18.25;;;;;20.63;41.60;99630.56;5049254;28;10057;-74
2022/05/12 02:46:08;;;;;;;;;19.00;18.25;;;;;20.56;41.60;99626.38;5049305;28;8883;-79
2022/05/12 02:48:38;;;;;;;;;19.25;18.25;;;;;20.61;41.64;99628.91;5049236;28;8964;-78
2022/05/12 02:51:09;;;;;;;;;18.25;18.00;;;;;20.60;41.62;99628.06;5047971;28;8984;-76
2022/05/12 02:53:38;;;;;;;;;16.60;16.60;;;;;20.57;41.60;99644.03;5049359;28;8852;-77
2022/05/12 02:56:07;;;;;;;;;16.60;16.60;;;;;20.53;41.61;99642.44;5047909;28;8969;-76
2022/05/12 02:58:37;;;;;;;;;17.00;16.40;;;;;20.56;41.18;99633.47;5047802;28;8838;-74
2022/05/12 03:01:07;;;;;;;;;15.60;15.60;;;;;20.56;41.12;99636.97;5049429;28;8851;-73
2022/05/12 03:03:35;;;;;;;;;13.80;13.80;;;;;20.60;41.17;99633.34;5064731;28;8847;-75
2022/05/12 03:06:04;;;;;;;;;14.80;14.80;;;;;20.58;41.31;99636.94;5050162;28;8907;-73
2022/05/12 03:08:34;;;;;;;;;17.75;17.75;;;;;20.59;41.37;99641.31;5050272;28;8950;-74
2022/05/12 03:11:04;;;;;;;;;16.00;15.00;;;;;20.60;40.97;99641.31;5066707;28;8845;-74
2022/05/12 03:13:32;;;;;;;;;14.40;13.80;;;;;20.64;40.92;99636.72;5065957;28;8845;-75
2022/05/12 03:16:02;;;;;;;;;14.60;14.00;;;;;20.67;40.93;99639.25;5066153;28;9159;-74
2022/05/12 03:18:31;;;;;;;;;13.00;13.00;;;;;20.69;40.74;99640.03;5065862;28;8842;-74
2022/05/12 03:20:59;;;;;;;;;17.20;17.20;;;;;20.71;40.76;99637.34;5064236;28;8850;-76
2022/05/12 03:23:28;;;;;;;;;19.00;17.60;;;;;20.69;40.75;99653.28;5065528;28;8952;-74
2022/05/12 03:25:58;;;;;;;;;17.60;17.20;;;;;20.68;41.04;99661.31;5065687;28;8974;-74
2022/05/12 03:28:27;;;;;;;;;13.20;13.20;;;;;20.77;40.56;99655.63;5065679;28;8833;-74
2022/05/12 03:30:56;;;;;;;;;17.40;17.40;;;;;20.90;40.48;99661.31;5045234;28;8852;-77
2022/05/12 03:33:25;;;;;;;;;14.00;13.40;;;;;20.94;40.21;99669.06;5045636;28;8839;-73
2022/05/12 03:35:54;;;;;;;;;15.00;15.00;;;;;20.99;40.23;99669.72;5045676;28;8910;-74
2022/05/12 03:38:22;;;;;;;;;20.50;20.50;;;;;20.95;40.75;99664.63;5011168;28;9005;-75
2022/05/12 03:40:51;;;;;;;;;20.40;20.40;;;;;20.87;40.90;99661.41;5028769;28;8856;-76
2022/05/12 03:46:08;;;;;;;;;16.00;16.00;;;;;21.00;39.94;99668.81;5065275;28;8857;-74
2022/05/12 03:48:39;;;;;;;;;17.40;15.80;;;;;21.14;39.66;99672.69;5065417;28;8856;-74
2022/05/12 03:51:08;;;;;;;;;24.50;23.75;;;;;21.19;40.22;99674.22;5048621;28;8865;-74
2022/05/12 03:53:38;;;;;;;;;62.00;50.50;;;;;21.19;40.14;99673.31;5064266;28;8880;-75
2022/05/12 03:56:08;;;;;;;;;26.00;22.50;;;;;21.31;40.17;99682.56;5065361;28;8838;-74
2022/05/12 03:58:38;;;;;;;;;22.25;21.50;;;;;21.38;40.03;99681.41;5065323;28;8842;-75
2022/05/12 04:01:07;;;;;;;;;32.00;29.50;;;;;21.45;40.84;99674.91;5065908;28;8899;-73
2022/05/12 04:03:36;;;;;;;;;35.75;32.50;;;;;21.45;41.75;99682.88;5032294;28;8861;-75
2022/05/12 04:06:07;;;;;;;;;26.50;26.25;;;;;21.35;41.89;99687.69;5065920;28;8858;-74
2022/05/12 04:08:35;;;;;;;;;26.50;26.00;;;;;21.46;41.95;99692.56;5066655;28;8859;-74
2022/05/12 04:11:07;;;;;;;;;25.25;24.75;;;;;21.55;42.05;99691.28;5045311;28;8828;-76
2022/05/12 04:13:37;;;;;;;;;55.00;45.25;;;;;21.66;41.71;99696.97;5044492;28;8855;-74
2022/05/12 04:16:06;;;;;;;;;26.25;25.75;;;;;21.75;41.51;99703.69;5029096;28;8856;-74
2022/05/12 04:18:35;;;;;;;;;29.00;27.75;;;;;21.79;41.47;99700.81;5028338;28;8962;-75
2022/05/12 04:21:03;;;;;;;;;25.00;25.00;;;;;21.89;41.83;99705.72;5028321;28;8906;-77
2022/05/12 04:23:32;;;;;;;;;27.25;27.25;;;;;21.97;42.36;99716.88;5012022;28;8956;-73
2022/05/12 04:26:02;;;;;;;;;30.25;29.00;;;;;22.04;41.79;99705.06;5047528;28;8844;-75
2022/05/12 04:28:33;;;;;;;;;42.25;35.25;;;;;22.11;41.83;99705.63;5048809;28;8926;-76
2022/05/12 04:31:03;;;;;;;;;37.25;33.75;;;;;22.16;41.31;99716.91;4998551;28;8840;-75
2022/05/12 04:36:18;;;;;;;;;27.00;26.75;;;;;22.33;41.05;99716.19;5032086;28;8832;-74
2022/05/12 04:38:46;;;;;;;;;30.00;29.00;;;;;22.39;41.51;99710.56;5032006;28;8869;-74
2022/05/12 04:41:16;;;;;;;;;38.75;34.75;;;;;22.41;41.04;99707.84;5050397;28;8859;-76
2022/05/12 04:43:44;;;;;;;;;37.00;34.00;;;;;22.35;41.11;99709.84;5076393;28;8912;-75
2022/05/12 04:46:14;;;;;;;;;29.75;29.00;;;;;22.42;40.99;99714.88;5071184;28;8859;-73
2022/05/12 04:48:43;;;;;;;;;35.00;31.75;;;;;22.48;41.37;99710.13;5052013;28;8864;-75
2022/05/12 04:51:11;;;;;;;;;30.25;30.00;;;;;22.58;40.60;99711.41;5066074;28;8948;-76
2022/05/12 04:53:40;;;;;;;;;34.25;32.75;;;;;22.69;40.37;99710.06;5051609;28;8862;-76
2022/05/12 04:56:09;;;;;;;;;25.25;24.25;;;;;22.77;39.79;99718.53;5051743;28;8939;-75
2022/05/12 04:58:37;;;;;;;;;29.75;29.50;;;;;22.88;39.81;99707.38;5050029;28;8830;-76
2022/05/12 05:01:06;;;;;;;;;23.50;23.00;;;;;22.93;37.71;99715.97;5037888;28;8844;-75
2022/05/12 05:03:36;;;;;;;;;26.50;25.50;;;;;22.79;38.00;99713.97;5068722;28;8973;-76
2022/05/12 05:06:05;;;;;;;;;29.00;28.75;;;;;22.77;38.24;99714.06;5071036;28;8937;-75
2022/05/12 05:08:34;;;;;;;;;26.25;25.00;;;;;22.84;38.59;99722.63;5069899;28;9010;-74
2022/05/12 05:11:03;;;;;;;;;23.25;21.50;;;;;22.91;38.10;99709.84;5052217;28;8883;-74
2022/05/12 05:13:32;;;;;;;;;25.25;24.00;;;;;23.05;38.76;99715.41;5070856;28;8864;-75
2022/05/12 05:16:02;;;;;;;;;23.80;23.40;;;;;23.13;37.95;99718.53;5058723;28;8988;-75
2022/05/12 05:18:31;;;;;;;;;28.25;27.75;;;;;23.16;38.54;99715.75;5050672;28;8892;-76
2022/05/12 05:21:01;;;;;;;;;27.50;24.75;;;;;23.30;38.31;99722.16;5065334;28;8848;-75
2022/05/12 05:23:30;;;;;;;;;23.25;23.25;;;;;23.41;38.35;99718.97;5070367;28;8895;-74
2022/05/12 05:25:59;;;;;;;;;22.75;22.75;;;;;23.63;37.78;99719.59;5034785;28;8876;-74
2022/05/12 05:28:28;;;;;;;;;19.50;19.25;;;;;23.52;38.18;99722.81;5034903;28;8851;-77
2022/05/12 05:30:56;;;;;;;;;26.25;23.75;;;;;23.73;37.61;99715.50;5063373;28;8839;-75
2022/05/12 05:33:25;;;;;;;;;29.75;28.00;;;;;23.84;37.93;99716.78;5051018;28;8874;-74
2022/05/12 05:35:54;;;;;;;;;22.50;20.25;;;;;24.04;37.59;99711.25;5032027;28;8880;-78
2022/05/12 05:38:24;;;;;;;;;20.25;20.25;;;;;24.28;36.60;99714.38;5068624;28;8859;-74
2022/05/12 05:40:53;;;;;;;;;19.50;18.75;;;;;24.32;36.02;99721.25;5070295;28;8844;-71
2022/05/12 05:43:23;;;;;;;;;17.75;17.75;;;;;24.18;36.55;99715.84;5063717;28;8858;-70
2022/05/12 05:45:52;;;;;;;;;18.60;17.60;;;;;24.19;36.40;99717.53;5049913;28;8881;-73
2022/05/12 05:48:20;;;;;;;;;28.00;28.00;;;;;24.42;36.63;99710.94;5049990;28;8865;-71
2022/05/12 05:53:39;;;;;;;;;26.25;25.25;;;;;24.79;36.44;99718.75;5049431;28;8843;-72
2022/05/12 05:56:14;;;;;;;;;22.00;22.00;;;;;24.93;35.78;99725.97;5049700;28;8830;-71
2022/05/12 05:58:44;;;;;;;;;23.00;22.00;;;;;25.11;35.39;99719.56;5049655;28;8843;-73
2022/05/12 06:01:13;;;;;;;;;22.00;19.25;;;;;25.29;35.52;99723.00;5049583;28;8873;-71
2022/05/12 06:03:43;;;;;;;;;22.00;20.20;;;;;25.42;35.30;99721.31;5049633;28;8877;-71
2022/05/12 06:06:11;;;;;;;;;44.25;37.25;;;;;25.60;36.03;99719.38;5049185;28;8861;-72
2022/05/12 06:08:41;;;;;;;;;20.00;17.80;;;;;25.77;36.02;99725.53;5049757;28;8831;-74
2022/05/12 06:11:10;;;;;;;;;23.25;21.75;;;;;25.90;36.40;99722.94;5065770;28;8879;-71
2022/05/12 06:13:38;;;;;;;;;21.50;21.00;;;;;26.01;36.50;99721.38;5033752;28;8860;-72
2022/05/12 06:16:07;;;;;;;;;18.80;18.00;;;;;26.15;36.28;99719.66;5066092;28;8844;-76
2022/05/12 06:18:37;;;;;;;;;21.00;20.50;;;;;26.11;36.18;99718.13;5049314;28;8874;-74
2022/05/12 06:21:09;;;;;;;;;19.00;19.00;;;;;26.15;35.27;99715.16;5048382;28;8866;-75
2022/05/12 06:23:38;;;;;;;;;21.00;21.00;;;;;25.75;33.91;99720.28;5049329;28;8920;-75
2022/05/12 06:26:13;;;;;;;;;24.25;22.75;;;;;25.92;33.59;99724.63;5048428;28;9719;-75
2022/05/12 06:28:45;;;;;;;;;15.00;14.25;;;;;25.81;33.44;99727.06;5056473;28;8836;-76
2022/05/12 06:31:14;;;;;;;;;22.50;22.50;;;;;25.88;33.74;99723.91;5068720;28;8994;-75
2022/05/12 06:33:43;;;;;;;;;22.00;22.00;;;;;25.85;34.80;99729.44;5067611;28;8836;-76
2022/05/12 06:36:11;;;;;;;;;24.25;23.00;;;;;25.97;34.55;99727.84;5068560;28;9760;-74
2022/05/12 06:38:40;;;;;;;;;29.75;29.25;;;;;25.45;36.25;99726.50;5061171;28;8924;-76
2022/05/12 06:41:10;;;;;;;;;21.75;20.75;;;;;25.76;35.66;99721.13;5049282;28;8839;-75
2022/05/12 06:43:38;;;;;;;;;19.00;19.00;;;;;25.96;34.33;99728.81;5049290;28;8893;-76
2022/05/12 06:46:10;;;;;;;;;17.25;16.25;;;;;26.18;33.58;99717.66;5049363;28;8867;-74
2022/05/12 06:48:39;;;;;;;;;16.80;16.80;;;;;26.33;33.56;99721.16;5048649;28;8862;-74
2022/05/12 06:51:08;;;;;;;;;16.50;16.50;;;;;26.54;33.76;99720.75;5047427;28;8854;-76
2022/05/12 06:53:36;;;;;;;;;24.00;22.25;;;;;26.64;33.22;99714.75;5048147;28;8843;-74
2022/05/12 06:56:14;;;;;;;;;24.75;21.00;;;;;26.66;32.54;99711.97;5048364;28;8834;-73
2022/05/12 06:58:42;;;;;;;;;22.25;21.00;;;;;26.72;32.37;99708.91;5048532;28;9654;-75
2022/05/12 07:01:11;;;;;;;;;21.25;21.00;;;;;26.70;32.76;99705.47;5047688;28;8846;-74
2022/05/12 07:03:41;;;;;;;;;22.75;19.50;;;;;26.83;32.63;99706.38;5053103;28;8995;-74
2022/05/12 07:06:10;;;;;;;;;19.00;18.75;;;;;26.89;32.02;99706.94;5048917;28;9005;-74
2022/05/12 07:08:41;;;;;;;;;15.00;13.40;;;;;27.04;32.01;99706.78;5046939;28;8854;-76
2022/05/12 07:11:11;;;;;;;;;18.25;18.25;;;;;27.24;31.79;99709.97;5048586;28;8859;-74
2022/05/12 07:13:42;;;;;;;;;17.00;16.75;;;;;27.35;31.86;99714.63;5051007;28;9628;-74
2022/05/12 07:16:10;;;;;;;;;21.25;21.25;;;;;27.50;31.76;99712.72;5048252;28;8981;-73
2022/05/12 07:18:46;;;;;;;;;19.75;19.25;;;;;27.30;31.44;99714.94;5048155;28;8827;-75
2022/05/12 07:26:52;;;;;;;;;25.00;24.75;;;;;26.94;31.72;99721.75;5047890;28;8927;-71
2022/05/12 07:29:26;;;;;;;;;18.20;17.00;;;;;27.16;31.67;99721.16;5048120;28;8978;-70
2022/05/12 07:31:55;;;;;;;;;19.00;18.40;;;;;27.39;31.19;99717.00;5047293;28;9667;-69
2022/05/12 07:34:23;;;;;;;;;20.75;20.75;;;;;27.01;31.94;99717.72;5048193;28;8919;-69
2022/05/12 07:36:53;;;;;;;;;20.50;20.25;;;;;26.41;32.41;99726.91;5048512;28;8850;-69
2022/05/12 07:39:28;;;;;;;;;20.00;20.00;;;;;26.83;32.32;99721.59;5048291;28;8834;-70
2022/05/12 07:41:59;;;;;;;;;22.50;20.50;;;;;27.01;32.15;99727.53;5048252;28;8846;-70
2022/05/12 07:44:32;;;;;;;;;25.75;20.75;;;;;27.07;32.37;99731.63;5048505;28;8835;-69
2022/05/12 07:47:04;;;;;;;;;21.75;19.75;;;;;27.20;32.25;99730.72;5048146;28;8876;-72
2022/05/12 07:49:35;;;;;;;;;23.00;22.25;;;;;27.18;32.14;99723.75;5056069;28;8836;-71
2022/05/12 07:52:06;;;;;;;;;45.50;38.25;;;;;27.11;31.54;99726.00;5053356;28;8859;-71
2022/05/12 07:54:36;;;;;;;;;21.25;20.50;;;;;27.38;30.96;99725.13;5048353;28;8969;-72
2022/05/12 07:57:05;;;;;;;;;19.75;19.00;;;;;27.16;32.20;99729.19;5048170;28;8972;-73
2022/05/12 07:59:43;;;;;;;;;19.20;17.60;;;;;27.42;32.06;99729.31;5040936;28;8854;-73
2022/05/12 08:02:15;;;;;;;;;21.00;19.75;;;;;27.48;30.42;99714.66;5045318;28;8842;-72
2022/05/12 08:04:46;;;;;;;;;17.60;17.60;;;;;27.42;30.83;99726.63;5045286;28;8850;-74
2022/05/12 08:07:15;;;;;;;;;20.00;20.00;;;;;27.54;31.06;99720.47;5038858;28;8862;-72
2022/05/12 08:09:45;;;;;;;;;20.50;20.25;;;;;27.46;30.25;99725.47;5044930;28;8919;-72
2022/05/12 08:12:15;;;;;;;;;16.00;16.00;;;;;27.13;30.35;99733.94;5045158;28;8988;-72
2022/05/12 08:14:45;;;;;;;;;14.20;14.20;;;;;26.27;28.31;99732.25;5045484;28;9701;-76
2022/05/12 08:17:14;;;;;;;;;16.00;15.20;;;;;25.88;30.07;99739.94;5037149;28;8882;-74
2022/05/12 08:19:42;;;;;;;;;19.80;17.80;;;;;25.57;31.88;99738.25;5062941;28;8969;-79
2022/05/12 08:22:11;;;;;;;;;21.50;21.00;;;;;25.60;33.03;99737.22;5054885;28;8881;-76
2022/05/12 08:24:40;;;;;;;;;22.00;20.75;;;;;25.59;34.00;99741.69;5024536;28;8881;-73
2022/05/12 08:27:08;;;;;;;;;18.20;16.20;;;;;25.47;32.92;99727.25;5044633;28;8858;-74
2022/05/12 08:29:38;;;;;;;;;15.20;15.00;;;;;25.66;32.31;99731.50;5044536;28;8873;-76
2022/05/12 08:32:08;;;;;;;;;15.75;15.00;;;;;26.07;32.56;99725.50;5027255;28;8949;-76
2022/05/12 08:34:37;;;;;;;;;25.50;24.50;;;;;26.42;34.00;99725.94;5035798;28;8898;-74
2022/05/12 08:37:05;;;;;;;;;22.00;21.00;;;;;26.34;34.41;99722.88;5027527;28;8876;-74
2022/05/12 08:39:35;;;;;;;;;17.20;16.80;;;;;26.73;33.36;99723.13;5026927;28;8867;-75
2022/05/12 08:42:12;;;;;;;;;22.00;19.75;;;;;27.06;32.28;99727.25;5046121;28;8887;-75
2022/05/12 08:44:41;;;;;;;;;21.25;20.00;;;;;27.23;32.66;99732.34;5043213;28;8890;-74
2022/05/12 08:47:16;;;;;;;;;21.75;20.50;;;;;27.49;32.36;99733.31;5027303;28;8885;-72
2022/05/12 08:49:48;;;;;;;;;18.20;17.20;;;;;27.58;31.58;99734.47;5036495;28;8853;-75
2022/05/12 08:52:21;;;;;;;;;18.00;17.50;;;;;27.15;31.82;99740.03;5031344;28;8944;-77
2022/05/12 08:54:54;;;;;;;;;20.00;20.00;;;;;26.68;32.44;99734.16;5042867;28;8848;-77
2022/05/12 08:57:33;;;;;;;;;20.25;20.25;;;;;27.09;32.04;99732.38;5026610;28;8945;-78
2022/05/12 09:00:08;;;;;;;;;19.50;18.50;;;;;27.35;31.90;99736.03;5008994;28;9628;-76
2022/05/12 09:02:52;;;;;;;;;18.60;18.60;;;;;26.92;30.97;99733.50;5027489;28;8851;-74
2022/05/12 09:05:27;;;;;;;;;15.20;15.20;;;;;26.59;30.92;99738.25;5027465;28;8847;-76
2022/05/12 09:08:05;;;;;;;;;20.20;16.60;;;;;26.33;31.29;99741.69;5027118;28;9050;-69
2022/05/12 09:10:48;;;;;;;;;17.80;16.80;;;;;26.21;32.24;99746.00;5026905;28;8867;-70
2022/05/12 09:13:26;;;;;;;;;16.60;16.60;;;;;25.94;30.56;99744.09;4998008;28;9030;-73
2022/05/12 09:16:05;;;;;;;;;19.75;18.75;;;;;26.09;30.24;99744.06;5030393;28;8847;-72
2022/05/12 09:18:37;;;;;;;;;16.00;15.60;;;;;26.07;30.24;99741.53;5030557;28;8882;-72
2022/05/12 09:21:09;;;;;;;;;17.20;16.80;;;;;25.94;30.97;99743.22;5049435;28;8870;-72
2022/05/12 09:23:38;;;;;;;;;15.00;15.00;;;;;26.05;31.11;99744.28;5050278;28;8939;-70
2022/05/12 09:26:37;;;;;;;;;16.80;16.80;;;;;26.37;31.04;99736.06;5015236;28;8842;-80
2022/05/12 09:29:15;;;;;;;;;22.25;21.00;;;;;26.32;31.33;99734.66;5049457;28;8973;-80
2022/05/12 09:31:47;;;;;;;;;18.50;18.50;;;;;26.63;30.19;99737.13;5048732;28;8965;-79
2022/05/12 09:34:22;;;;;;;;;21.50;20.75;;;;;26.41;31.19;99736.75;5051096;28;8884;-78
2022/05/12 09:36:51;;;;;;;;;21.20;18.60;;;;;26.73;30.64;99737.38;5051080;28;8858;-78
2022/05/12 09:39:37;;;;;;;;;19.25;19.25;;;;;27.10;30.38;99731.44;5049765;28;8859;-78
2022/05/12 09:42:09;;;;;;;;;18.25;18.25;;;;;26.39;31.49;99731.50;5050746;28;9761;-79
2022/05/12 09:44:38;;;;;;;;;17.60;16.80;;;;;26.23;31.44;99731.56;5048950;28;8873;-83
2022/05/12 09:47:13;;;;;;;;;21.25;19.00;;;;;26.52;30.99;99736.03;5066297;28;8839;-80
2022/05/12 09:49:46;;;;;;;;;20.50;19.50;;;;;26.26;31.18;99731.41;5050380;28;9039;-79
2022/05/12 09:52:27;;;;;;;;;22.25;20.25;;;;;26.16;31.50;99740.97;5031113;28;8922;-78
2022/05/12 09:55:23;;;;;;;;;20.75;19.00;;;;;26.52;31.58;99736.03;5066365;28;8867;-79
2022/05/12 09:57:54;;;;;;;;;21.00;19.25;;;;;26.58;30.97;99739.19;4991529;28;8859;-77
2022/05/12 10:00:32;;;;;;;;;38.50;33.25;;;;;26.80;31.06;99725.31;5007351;28;8848;-77
2022/05/12 10:09:04;;;;;;;;;18.00;17.40;;;;;26.66;30.31;99717.34;5007357;28;9068;-76
2022/05/12 10:11:41;;;;;;;;;29.50;29.50;;;;;26.04;30.63;99726.53;4974343;28;8844;-70
2022/05/12 10:14:22;;;;;;;;;20.25;19.75;;;;;26.38;30.29;99719.06;5006600;28;8860;-68
2022/05/12 10:16:54;;;;;;;;;26.25;25.00;;;;;26.73;30.37;99704.41;4974364;28;8875;-67
2022/05/12 10:19:24;;;;;;;;;20.80;20.80;;;;;26.16;30.83;99711.56;5007245;28;8848;-68
2022/05/12 10:22:08;;;;;;;;;17.00;17.00;;;;;25.98;30.71;99712.69;5006934;28;8948;-67
2022/05/12 10:24:51;;;;;;;;;17.60;17.60;;;;;26.35;30.14;99713.03;4974287;28;8879;-66
2022/05/12 10:27:29;;;;;;;;;20.50;19.50;;;;;26.38;30.55;99700.34;5006838;28;9039;-70
2022/05/12 10:30:06;;;;;;;;;21.00;20.50;;;;;26.88;30.88;99694.50;4990601;28;9025;-68
2022/05/12 10:32:47;;;;;;;;;18.60;17.40;;;;;26.89;28.41;99705.13;5006600;28;8876;-67
2022/05/12 10:35:22;;;;;;;;;14.60;13.60;;;;;26.55;28.91;99706.44;5041510;28;8850;-66
2022/05/12 10:38:01;;;;;;;;;20.50;17.75;;;;;26.72;28.77;99705.38;5048997;28;8842;-67
2022/05/12 10:40:37;;;;;;;;;20.20;18.60;;;;;27.18;30.10;99705.88;5048875;28;8939;-67
2022/05/12 10:43:23;;;;;;;;;18.80;18.80;;;;;27.63;29.54;99704.69;5048804;28;8850;-67
2022/05/12 10:46:01;;;;;;;;;18.60;17.60;;;;;28.00;28.96;99697.66;5049005;28;8851;-67
2022/05/12 10:48:39;;;;;;;;;19.25;19.25;;;;;28.16;27.78;99700.09;5048676;28;8868;-71
2022/05/12 10:51:18;;;;;;;;;20.25;20.25;;;;;27.69;28.10;99702.44;5048864;28;8908;-71
2022/05/12 10:53:59;;;;;;;;;23.00;22.50;;;;;27.67;28.79;99701.69;5048458;28;8851;-73
2022/05/12 10:56:36;;;;;;;;;18.00;16.20;;;;;27.62;28.02;99701.19;5048410;28;8859;-73
2022/05/12 10:59:43;;;;;;;;;18.00;18.00;;;;;27.92;27.74;99697.34;5047788;28;8847;-71
2022/05/12 11:02:18;;;;;;;;;14.60;14.00;;;;;28.21;28.22;99697.97;5048282;28;9629;-71
2022/05/12 11:04:52;;;;;;;;;22.00;20.80;;;;;28.00;28.41;99695.00;5048207;28;8854;-73
2022/05/12 11:07:29;;;;;;;;;17.75;17.00;;;;;28.11;27.87;99697.78;5042864;28;8939;-74
2022/05/12 11:10:05;;;;;;;;;23.00;21.00;;;;;28.23;28.39;99690.66;5063399;28;8851;-73
2022/05/12 11:12:41;;;;;;;;;19.50;19.50;;;;;28.66;27.63;99686.69;5046966;28;8847;-73
2022/05/12 11:15:17;;;;;;;;;17.50;16.50;;;;;28.74;27.96;99682.50;5047244;28;8855;-72
2022/05/12 11:17:53;;;;;;;;;19.25;19.25;;;;;28.91;27.55;99691.13;5048166;28;8831;-73
2022/05/12 11:20:25;;;;;;;;;23.00;22.75;;;;;28.91;27.99;99677.72;5047925;28;8835;-74
2022/05/12 11:23:16;;;;;;;;;20.25;20.00;;;;;28.18;28.35;99685.63;5048011;28;8855;-75
2022/05/12 11:26:01;;;;;;;;;20.00;20.00;;;;;28.12;28.58;99677.16;5047799;28;8866;-74
2022/05/12 11:31:29;;;;;;;;;20.00;20.00;;;;;28.94;27.33;99680.13;5047901;28;8854;-75
2022/05/12 11:34:04;;;;;;;;;21.50;20.00;;;;;29.36;27.99;99669.84;5047481;28;8885;-74
2022/05/12 11:36:40;;;;;;;;;22.25;21.00;;;;;29.80;26.98;99673.63;5047574;28;8843;-74
2022/05/12 11:39:27;;;;;;;;;18.00;18.00;;;;;29.30;27.03;99659.56;5060006;28;8850;-72
2022/05/12 11:42:17;;;;;;;;;22.50;22.50;;;;;29.07;27.84;99670.19;5047918;28;8874;-74
2022/05/12 11:44:55;;;;;;;;;21.50;20.00;;;;;29.34;28.18;99663.75;5047299;28;8889;-76
2022/05/12 11:48:03;;;;;;;;;23.25;23.25;;;;;29.21;27.43;99663.81;5047627;28;8858;-73
2022/05/12 11:51:22;;;;;;;;;17.50;17.50;;;;;29.72;27.25;99665.28;5047886;28;8835;-74
2022/05/12 11:53:56;;;;;;;;;20.75;20.75;;;;;29.27;27.55;99666.03;4964182;28;8852;-70
2022/05/12 11:56:40;;;;;;;;;19.75;19.75;;;;;29.05;27.88;99653.34;4966981;28;8948;-70
2022/05/12 11:59:24;;;;;;;;;19.00;17.50;;;;;29.18;27.50;99663.19;4966768;28;8878;-72
2022/05/12 12:01:57;;;;;;;;;16.75;16.75;;;;;29.19;27.54;99654.16;4967032;28;8832;-71
2022/05/12 12:04:46;;;;;;;;;21.50;21.50;;;;;29.91;26.54;99646.75;4966337;28;8872;-72
2022/05/12 12:07:37;;;;;;;;;16.75;15.50;;;;;30.69;26.71;99638.69;4965930;28;8871;-73
2022/05/12 12:10:08;;;;;;;;;19.00;18.25;;;;;31.38;25.51;99632.91;4966393;28;8970;-71